Map

Track Data

SID SEASON NUMBER BASIN SUBBASIN NAME ISO_TIME NATURE LAT LON WMO_WIND WMO_PRES WMO_AGENCY TRACK_TYPE DIST2LAND LANDFALL IFLAG USA_AGENCY USA_ATCF_ID USA_LAT USA_LON USA_RECORD USA_STATUS USA_WIND USA_PRES USA_SSHS USA_R34_NE USA_R34_SE USA_R34_SW USA_R34_NW USA_R50_NE USA_R50_SE USA_R50_SW USA_R50_NW USA_R64_NE USA_R64_SE USA_R64_SW USA_R64_NW USA_POCI USA_ROCI USA_RMW USA_EYE TOKYO_LAT TOKYO_LON TOKYO_GRADE TOKYO_WIND TOKYO_PRES TOKYO_R50_DIR TOKYO_R50_LONG TOKYO_R50_SHORT TOKYO_R30_DIR TOKYO_R30_LONG TOKYO_R30_SHORT TOKYO_LAND CMA_LAT CMA_LON CMA_CAT CMA_WIND CMA_PRES HKO_LAT HKO_LON HKO_CAT HKO_WIND HKO_PRES NEWDELHI_LAT NEWDELHI_LON NEWDELHI_GRADE NEWDELHI_WIND NEWDELHI_PRES NEWDELHI_CI NEWDELHI_DP NEWDELHI_POCI REUNION_LAT REUNION_LON REUNION_TYPE REUNION_WIND REUNION_PRES REUNION_TNUM REUNION_CI REUNION_RMW REUNION_R34_NE REUNION_R34_SE REUNION_R34_SW REUNION_R34_NW REUNION_R50_NE REUNION_R50_SE REUNION_R50_SW REUNION_R50_NW REUNION_R64_NE REUNION_R64_SE REUNION_R64_SW REUNION_R64_NW BOM_LAT BOM_LON BOM_TYPE BOM_WIND BOM_PRES BOM_TNUM BOM_CI BOM_RMW BOM_R34_NE BOM_R34_SE BOM_R34_SW BOM_R34_NW BOM_R50_NE BOM_R50_SE BOM_R50_SW BOM_R50_NW BOM_R64_NE BOM_R64_SE BOM_R64_SW BOM_R64_NW BOM_ROCI BOM_POCI BOM_EYE BOM_POS_METHOD BOM_PRES_METHOD NADI_LAT NADI_LON NADI_CAT NADI_WIND NADI_PRES WELLINGTON_LAT WELLINGTON_LON WELLINGTON_WIND WELLINGTON_PRES DS824_LAT DS824_LON DS824_STAGE DS824_WIND DS824_PRES TD9636_LAT TD9636_LON TD9636_STAGE TD9636_WIND TD9636_PRES TD9635_LAT TD9635_LON TD9635_WIND TD9635_PRES TD9635_ROCI NEUMANN_LAT NEUMANN_LON NEUMANN_CLASS NEUMANN_WIND NEUMANN_PRES MLC_LAT MLC_LON MLC_CLASS MLC_WIND MLC_PRES USA_GUST BOM_GUST BOM_GUST_PER REUNION_GUST REUNION_GUST_PER USA_SEAHGT USA_SEARAD_NE USA_SEARAD_SE USA_SEARAD_SW USA_SEARAD_NW STORM_SPEED STORM_DIR
1940045S09177 1940 11 SP MM NOT_NAMED 1940-02-14 00:00:00 NR -9.30000 177.400 main 815 808 __________O___ -1 -9.30000 177.400 2 4 245
1940045S09177 1940 11 SP MM NOT_NAMED 1940-02-14 03:00:00 NR -9.39384 177.200 main 811 804 __________P___ -1 -9.39384 177.200 2 4 244
1940045S09177 1940 11 SP MM NOT_NAMED 1940-02-14 06:00:00 NR -9.49009 177.000 main 808 801 __________P___ -1 -9.49009 177.000 2 4 243
1940045S09177 1940 11 SP MM NOT_NAMED 1940-02-14 09:00:00 NR -9.59130 176.800 main 805 798 __________P___ -1 -9.59130 176.800 2 4 242
1940045S09177 1940 11 SP MM NOT_NAMED 1940-02-14 12:00:00 NR -9.70000 176.600 main 803 797 __________O___ -1 -9.70000 176.600 2 5 240
1940045S09177 1940 11 SP MM NOT_NAMED 1940-02-14 15:00:00 NR -9.81778 176.400 main 801 794 __________P___ -1 -9.81778 176.400 2 5 238
1940045S09177 1940 11 SP MM NOT_NAMED 1940-02-14 18:00:00 NR -9.94245 176.200 main 798 786 __________P___ -1 -9.94245 176.200 2 5 237
1940045S09177 1940 11 SP MM NOT_NAMED 1940-02-14 21:00:00 NR -10.0709 176.000 main 786 780 __________P___ -1 -10.0709 176.000 2 5 237
1940045S09177 1940 11 SP MM NOT_NAMED 1940-02-15 00:00:00 NR -10.2000 175.800 main 784 777 __________O___ -1 -10.2000 175.800 2 5 238
1940045S09177 1940 11 SP MM NOT_NAMED 1940-02-15 03:00:00 NR -10.3168 175.608 main 782 776 __________P___ -1 -10.3168 175.608 2 4 238
1940045S09177 1940 11 SP MM NOT_NAMED 1940-02-15 06:00:00 NR -10.4349 175.415 main 780 770 __________P___ -1 -10.4349 175.415 2 5 238
1940045S09177 1940 11 SP MM NOT_NAMED 1940-02-15 09:00:00 NR -10.5605 175.214 main 770 765 __________P___ -1 -10.5605 175.214 2 5 237
1940045S09177 1940 11 SP MM NOT_NAMED 1940-02-15 12:00:00 NR -10.7000 175.000 main 770 762 __________O___ -1 -10.7000 175.000 2 5 236
1940045S09177 1940 11 SP MM NOT_NAMED 1940-02-15 15:00:00 NR -10.8606 174.764 main 762 762 __________P___ -1 -10.8606 174.764 2 6 235
1940045S09177 1940 11 SP MM NOT_NAMED 1940-02-15 18:00:00 NR -11.0350 174.515 main 770 761 __________P___ -1 -11.0350 174.515 2 6 234
1940045S09177 1940 11 SP MM NOT_NAMED 1940-02-15 21:00:00 NR -11.2169 174.258 main 764 759 __________P___ -1 -11.2169 174.258 2 6 234
1940045S09177 1940 11 SP MM NOT_NAMED 1940-02-16 00:00:00 NR -11.4000 174.000 main 766 763 __________O___ -1 -11.4000 174.000 2 6 235
1940045S09177 1940 11 SP MM NOT_NAMED 1940-02-16 03:00:00 NR -11.5709 173.742 main 770 769 __________P___ -1 -11.5709 173.742 2 6 236
1940045S09177 1940 11 SP MM NOT_NAMED 1940-02-16 06:00:00 NR -11.7425 173.485 main 777 745 __________P___ -1 -11.7425 173.485 2 6 235
1940045S09177 1940 11 SP MM NOT_NAMED 1940-02-16 09:00:00 NR -11.9178 173.236 main 745 715 __________P___ -1 -11.9178 173.236 2 6 233
1940045S09177 1940 11 SP MM NOT_NAMED 1940-02-16 12:00:00 NR -12.1000 173.000 main 715 686 __________O___ -1 -12.1000 173.000 2 6 229
1940045S09177 1940 11 SP MM NOT_NAMED 1940-02-16 15:00:00 NR -12.2804 172.802 main 686 656 __________P___ -1 -12.2804 172.802 2 5 226
1940045S09177 1940 11 SP MM NOT_NAMED 1940-02-16 18:00:00 NR -12.4697 172.615 main 656 627 __________P___ -1 -12.4697 172.615 2 5 223
1940045S09177 1940 11 SP MM NOT_NAMED 1940-02-16 21:00:00 NR -12.6742 172.420 main 627 598 __________P___ -1 -12.6742 172.420 2 6 223
1940045S09177 1940 11 SP MM NOT_NAMED 1940-02-17 00:00:00 NR -12.9000 172.200 main 598 559 __________O___ -1 -12.9000 172.200 2 7 226
1940045S09177 1940 11 SP MM NOT_NAMED 1940-02-17 03:00:00 NR -13.1495 171.917 main 559 517 __________P___ -1 -13.1495 171.917 2 8 228
1940045S09177 1940 11 SP MM NOT_NAMED 1940-02-17 06:00:00 NR -13.4202 171.608 main 517 475 __________P___ -1 -13.4202 171.608 2 8 227
1940045S09177 1940 11 SP MM NOT_NAMED 1940-02-17 09:00:00 NR -13.7058 171.295 main 475 429 __________P___ -1 -13.7058 171.295 2 8 226
1940045S09177 1940 11 SP MM NOT_NAMED 1940-02-17 12:00:00 NR -14.0000 171.000 main 429 392 __________O___ -1 -14.0000 171.000 2 8 220
1940045S09177 1940 11 SP MM NOT_NAMED 1940-02-17 15:00:00 NR -14.2842 170.789 main 392 355 __________P___ -1 -14.2842 170.789 2 7 214
1940045S09177 1940 11 SP MM NOT_NAMED 1940-02-17 18:00:00 NR -14.5768 170.594 main 355 319 __________P___ -1 -14.5768 170.594 2 7 214
1940045S09177 1940 11 SP MM NOT_NAMED 1940-02-17 21:00:00 NR -14.8810 170.377 main 319 275 __________P___ -1 -14.8810 170.377 2 8 217
1940045S09177 1940 11 SP MM NOT_NAMED 1940-02-18 00:00:00 NR -15.2000 170.100 main 275 222 __________O___ -1 -15.2000 170.100 2 9 225
1940045S09177 1940 11 SP MM NOT_NAMED 1940-02-18 03:00:00 NR -15.5402 169.695 main 222 166 __________P___ -1 -15.5402 169.695 2 11 230
1940045S09177 1940 11 SP MM NOT_NAMED 1940-02-18 06:00:00 NR -15.8933 169.231 main 156 107 __________P___ -1 -15.8933 169.231 2 12 232
1940045S09177 1940 11 SP MM NOT_NAMED 1940-02-18 09:00:00 NR -16.2496 168.751 main 107 53 __________P___ -1 -16.2496 168.751 2 11 232
1940045S09177 1940 11 SP MM NOT_NAMED 1940-02-18 12:00:00 NR -16.6000 168.300 main 53 30 __________O___ -1 -16.6000 168.300 2 10 229
1940045S09177 1940 11 SP MM NOT_NAMED 1940-02-18 15:00:00 NR -16.9194 167.950 main 39 35 __________P___ -1 -16.9194 167.950 2 9 225
1940045S09177 1940 11 SP MM NOT_NAMED 1940-02-18 18:00:00 NR -17.2342 167.634 main 67 67 __________P___ -1 -17.2342 167.634 2 9 223
1940045S09177 1940 11 SP MM NOT_NAMED 1940-02-18 21:00:00 NR -17.5569 167.325 main 113 113 __________P___ -1 -17.5569 167.325 2 9 222
1940045S09177 1940 11 SP MM NOT_NAMED 1940-02-19 00:00:00 NR -17.9000 167.000 main 154 154 __________O___ -1 -17.9000 167.000 2 10 223
1940045S09177 1940 11 SP MM NOT_NAMED 1940-02-19 03:00:00 NR -18.2704 166.613 main 212 212 __________P___ -1 -18.2704 166.613 2 11 225
1940045S09177 1940 11 SP MM NOT_NAMED 1940-02-19 06:00:00 NR -18.6626 166.207 main 252 191 __________P___ -1 -18.6626 166.207 2 11 224
1940045S09177 1940 11 SP MM NOT_NAMED 1940-02-19 09:00:00 NR -19.0735 165.798 main 191 129 __________P___ -1 -19.0735 165.798 2 11 222
1940045S09177 1940 11 SP MM NOT_NAMED 1940-02-19 12:00:00 NR -19.5000 165.400 main 129 68 __________O___ -1 -19.5000 165.400 2 12 220
1940045S09177 1940 11 SP MM NOT_NAMED 1940-02-19 15:00:00 NR -19.9599 165.012 main 61 10 __________P___ -1 -19.9599 165.012 2 12 218
1940045S09177 1940 11 SP MM NOT_NAMED 1940-02-19 18:00:00 NR -20.4300 164.640 main 0 0 __________P___ -1 -20.4300 164.640 2 11 216
1940045S09177 1940 11 SP MM NOT_NAMED 1940-02-19 21:00:00 NR -20.8850 164.299 main 15 15 __________P___ -1 -20.8850 164.299 2 11 215
1940045S09177 1940 11 SP MM NOT_NAMED 1940-02-20 00:00:00 NR -21.3000 164.000 main 69 69 __________O___ -1 -21.3000 164.000 2 9 214
1940045S09177 1940 11 SP MM NOT_NAMED 1940-02-20 03:00:00 NR -21.6427 163.748 main 115 115 __________P___ -1 -21.6427 163.748 2 8 214
1940045S09177 1940 11 SP MM NOT_NAMED 1940-02-20 06:00:00 NR -21.9445 163.539 main 152 152 __________P___ -1 -21.9445 163.539 2 7 212
1940045S09177 1940 11 SP MM NOT_NAMED 1940-02-20 09:00:00 NR -22.2241 163.361 main 178 178 __________P___ -1 -22.2241 163.361 2 5 200
1940045S09177 1940 11 SP MM NOT_NAMED 1940-02-20 11:00:00 NR -22.3458 163.382 main 184 190 __________P___ -1 -22.4073 163.252 2 3 0
1940045S09177 1940 11 SP MM NOT_NAMED 1940-02-20 12:00:00 NR -22.3732 163.390 main 190 190 __________O___ -1 -22.5000 163.200 2 4 224
1940045S09177 1940 11 SP MM NOT_NAMED 1940-02-20 15:00:00 NR -22.5321 163.187 main 214 214 __________P___ -1 -22.7958 163.043 2 5 235
1940045S09177 1940 11 SP MM NOT_NAMED 1940-02-20 18:00:00 NR -22.6709 162.934 main 252 252 __________P___ -1 -23.0923 162.899 2 6 237
1940045S09177 1940 11 SP MM NOT_NAMED 1940-02-20 21:00:00 NR -22.8628 162.639 main 290 290 __________P___ -1 -23.3926 162.756 2 7 243
1940045S09177 1940 11 SP MM NOT_NAMED 1940-02-20 23:00:00 NR -22.9207 162.402 990 bom main 307 307 ______O___P___ -1 -22.3000 162.200 990 -23.5966 162.654 2 7 260
1940045S09177 1940 11 SP MM NOT_NAMED 1940-02-21 00:00:00 NR -22.9237 162.247 main 324 324 ______P___O___ -1 -22.3431 161.976 -23.7000 162.600 2 9 256
1940045S09177 1940 11 SP MM NOT_NAMED 1940-02-21 03:00:00 NR -23.0670 161.770 main 371 371 ______P___P___ -1 -22.4798 161.301 -24.0016 162.406 2 10 251
1940045S09177 1940 11 SP MM NOT_NAMED 1940-02-21 06:00:00 NR -23.2380 161.242 main 425 425 ______P___P___ -1 -22.6475 160.621 -24.3126 162.200 2 10 245
1940045S09177 1940 11 SP MM NOT_NAMED 1940-02-21 09:00:00 NR -23.5032 160.744 main 485 485 ______P___P___ -1 -22.8711 159.934 -24.6423 161.994 2 11 238
1940045S09177 1940 11 SP MM NOT_NAMED 1940-02-21 11:00:00 NR -23.7136 160.411 main 523 523 ______P___P___ -1 -23.0638 159.470 -24.8771 161.862 2 12 243
1940045S09177 1940 11 SP MM NOT_NAMED 1940-02-21 12:00:00 TS -23.7817 160.156 main 546 546 ______P__OO___ -1 -23.1760 159.236 -23.2000 159.200 TC -25.0000 161.800 2 14 251
1940045S09177 1940 11 SP EA NOT_NAMED 1940-02-21 13:00:00 TS -23.8716 159.913 bom main 577 577 ______O__PP___ -1 -23.3000 159.000 -23.3677 159.028 TC -25.1282 161.743 2 14 240
1940045S09177 1940 11 SP EA NOT_NAMED 1940-02-21 15:00:00 TS -24.1251 159.504 main 623 567 ______P__PP___ -1 -23.5840 158.527 -23.7026 158.681 TC -25.3961 161.635 2 13 232
1940045S09177 1940 11 SP EA NOT_NAMED 1940-02-21 18:00:00 TS -24.5684 158.950 main 566 523 ______P__PP___ -1 -24.0801 157.861 -24.2036 158.158 TC -25.8199 161.485 2 13 221
1940045S09177 1940 11 SP EA NOT_NAMED 1940-02-21 21:00:00 TS -25.0868 158.573 main 523 504 ______P__PP___ -1 -24.6264 157.331 -24.7028 157.631 TC -26.2587 161.342 2 12 208
1940045S09177 1940 11 SP EA NOT_NAMED 1940-02-21 23:00:00 TS -25.4488 158.425 990 bom main 504 505 ______O__PP___ -1 -25.0000 157.100 990 4 -25.0345 157.277 TC -26.5534 161.247 2 11 192
1940045S09177 1940 11 SP EA NOT_NAMED 1940-02-22 00:00:00 TS -25.6428 158.439 main 506 506 ______P__OO___ -1 -25.1799 157.030 -25.2000 157.100 TC 45 990 -26.7000 161.200 2 11 0
1940045S09177 1940 11 SP EA NOT_NAMED 1940-02-22 03:00:00 NR -26.1723 158.454 main 528 515 ______P___P___ -1 -25.7308 156.984 TC -27.1372 161.042 2 10 178
1940045S09177 1940 11 SP EA NOT_NAMED 1940-02-22 06:00:00 NR -26.6699 158.480 main 511 500 ______P___P___ -1 -26.2854 157.131 TC -27.5725 160.885 2 10 173
1940045S09177 1940 11 SP EA NOT_NAMED 1940-02-22 09:00:00 NR -27.1611 158.587 main 504 501 ______P___P___ -1 -26.8260 157.397 TC -27.9966 160.736 2 10 168
1940045S09177 1940 11 SP EA NOT_NAMED 1940-02-22 10:00:00 NR -27.3214 158.633 bom main 501 499 ______O___P___ -1 -27.0000 157.500 TC -28.1338 160.689 2 10 164
1940045S09177 1940 11 SP EA NOT_NAMED 1940-02-22 11:00:00 NR -27.4795 158.683 main 506 505 ______P___P___ -1 -27.1700 157.606 TC -28.2684 160.643 2 10 164
1940045S09177 1940 11 SP EA NOT_NAMED 1940-02-22 12:00:00 NR -27.6351 158.735 main 505 503 ______P___O___ -1 -27.3363 157.713 -28.4000 160.600 2 10 162
1940045S09177 1940 11 SP EA NOT_NAMED 1940-02-22 15:00:00 NR -28.0879 158.903 main 519 518 ______P___P___ -1 -27.8150 158.048 -28.7762 160.483 2 10 156
1940045S09177 1940 11 SP EA NOT_NAMED 1940-02-22 18:00:00 NR -28.5848 159.215 main 545 545 ______P___P___ -1 -28.2703 158.398 -29.1300 160.380 2 10 154
1940045S09177 1940 11 SP EA NOT_NAMED 1940-02-22 21:00:00 NR -29.0238 159.422 main 563 563 ______P___P___ -1 -28.7107 158.757 -29.4688 160.288 2 10 155
1940045S09177 1940 11 SP EA NOT_NAMED 1940-02-22 23:00:00 NR -29.3450 159.615 990 bom main 583 594 ______O___P___ -1 -29.0000 159.000 990 -29.6900 160.229 2 21 139
1940045S09177 1940 11 SP MM NOT_NAMED 1940-02-23 00:00:00 NR -29.8000 160.200 main 646 __________O___ -1 -29.8000 160.200 2 41 132

Digital Typhoon Data and Search

About IBTrACS Database

This database is a web-friendly format of International Best Track Archive for Climate Stewardship (IBTrACS), a global best track data archive curated by NOAA dating back to 1842.

Updated: 2021-10-21